sensor_id;sensor_type;location;lat;lon;timestamp;P1;durP1;ratioP1;P2;durP2;ratioP2
18651;SDS011;9455;54.302;10.124;2023-11-22T00:02:05;25.37;;;9.17;;
18651;SDS011;9455;54.302;10.124;2023-11-22T00:04:31;33.33;;;10.77;;
18651;SDS011;9455;54.302;10.124;2023-11-22T00:06:58;29.70;;;10.43;;
18651;SDS011;9455;54.302;10.124;2023-11-22T00:09:24;5.57;;;3.00;;
18651;SDS011;9455;54.302;10.124;2023-11-22T00:11:51;4.70;;;2.87;;
18651;SDS011;9455;54.302;10.124;2023-11-22T00:14:18;5.83;;;2.90;;
18651;SDS011;9455;54.302;10.124;2023-11-22T00:16:44;4.93;;;2.93;;
18651;SDS011;9455;54.302;10.124;2023-11-22T00:19:12;6.13;;;2.77;;
18651;SDS011;9455;54.302;10.124;2023-11-22T00:21:42;7.60;;;2.90;;
18651;SDS011;9455;54.302;10.124;2023-11-22T00:24:08;4.70;;;2.63;;
18651;SDS011;9455;54.302;10.124;2023-11-22T00:26:35;5.60;;;2.90;;
18651;SDS011;9455;54.302;10.124;2023-11-22T00:29:02;3.30;;;2.97;;
18651;SDS011;9455;54.302;10.124;2023-11-22T00:31:28;8.63;;;2.83;;
18651;SDS011;9455;54.302;10.124;2023-11-22T00:33:55;3.23;;;2.87;;
18651;SDS011;9455;54.302;10.124;2023-11-22T00:36:23;2.33;;;2.10;;
18651;SDS011;9455;54.302;10.124;2023-11-22T00:38:49;3.80;;;3.23;;
18651;SDS011;9455;54.302;10.124;2023-11-22T00:41:16;2.70;;;2.50;;
18651;SDS011;9455;54.302;10.124;2023-11-22T00:43:43;2.97;;;2.50;;
18651;SDS011;9455;54.302;10.124;2023-11-22T00:46:09;4.60;;;2.40;;
18651;SDS011;9455;54.302;10.124;2023-11-22T00:48:36;4.70;;;2.30;;
18651;SDS011;9455;54.302;10.124;2023-11-22T00:51:03;3.97;;;2.13;;
18651;SDS011;9455;54.302;10.124;2023-11-22T00:53:35;2.53;;;2.20;;
18651;SDS011;9455;54.302;10.124;2023-11-22T00:56:02;6.97;;;2.30;;
18651;SDS011;9455;54.302;10.124;2023-11-22T00:58:29;3.33;;;2.80;;
18651;SDS011;9455;54.302;10.124;2023-11-22T01:00:56;3.30;;;1.93;;
18651;SDS011;9455;54.302;10.124;2023-11-22T01:03:23;2.10;;;1.90;;
18651;SDS011;9455;54.302;10.124;2023-11-22T01:05:49;2.47;;;2.10;;
18651;SDS011;9455;54.302;10.124;2023-11-22T01:08:16;5.90;;;2.30;;
18651;SDS011;9455;54.302;10.124;2023-11-22T01:10:44;2.40;;;2.20;;
18651;SDS011;9455;54.302;10.124;2023-11-22T01:13:11;3.30;;;2.60;;
18651;SDS011;9455;54.302;10.124;2023-11-22T01:15:39;6.03;;;2.60;;
18651;SDS011;9455;54.302;10.124;2023-11-22T01:18:06;2.73;;;2.00;;
18651;SDS011;9455;54.302;10.124;2023-11-22T01:20:33;2.77;;;2.23;;
18651;SDS011;9455;54.302;10.124;2023-11-22T01:23:00;7.47;;;2.73;;
18651;SDS011;9455;54.302;10.124;2023-11-22T01:25:26;4.03;;;2.30;;
18651;SDS011;9455;54.302;10.124;2023-11-22T01:28:07;5.23;;;2.50;;
18651;SDS011;9455;54.302;10.124;2023-11-22T01:30:36;3.30;;;2.93;;
18651;SDS011;9455;54.302;10.124;2023-11-22T01:33:02;2.83;;;2.60;;
18651;SDS011;9455;54.302;10.124;2023-11-22T01:35:29;5.27;;;2.43;;
18651;SDS011;9455;54.302;10.124;2023-11-22T01:37:56;2.20;;;1.73;;
18651;SDS011;9455;54.302;10.124;2023-11-22T01:40:23;6.80;;;2.20;;
18651;SDS011;9455;54.302;10.124;2023-11-22T01:42:51;2.33;;;2.07;;
18651;SDS011;9455;54.302;10.124;2023-11-22T01:45:21;3.03;;;2.33;;
18651;SDS011;9455;54.302;10.124;2023-11-22T01:47:47;2.10;;;1.90;;
18651;SDS011;9455;54.302;10.124;2023-11-22T01:50:14;3.70;;;2.43;;
18651;SDS011;9455;54.302;10.124;2023-11-22T01:52:41;3.30;;;2.60;;
18651;SDS011;9455;54.302;10.124;2023-11-22T01:55:08;5.90;;;2.50;;
18651;SDS011;9455;54.302;10.124;2023-11-22T01:57:35;2.67;;;1.87;;
18651;SDS011;9455;54.302;10.124;2023-11-22T02:00:02;2.60;;;2.40;;
18651;SDS011;9455;54.302;10.124;2023-11-22T02:02:33;3.87;;;2.33;;
18651;SDS011;9455;54.302;10.124;2023-11-22T02:05:00;6.57;;;2.40;;
18651;SDS011;9455;54.302;10.124;2023-11-22T02:07:27;2.17;;;1.97;;
18651;SDS011;9455;54.302;10.124;2023-11-22T02:09:54;4.90;;;2.00;;
18651;SDS011;9455;54.302;10.124;2023-11-22T02:12:21;2.00;;;1.70;;
18651;SDS011;9455;54.302;10.124;2023-11-22T02:14:47;6.63;;;2.53;;
18651;SDS011;9455;54.302;10.124;2023-11-22T02:17:14;3.27;;;2.03;;
18651;SDS011;9455;54.302;10.124;2023-11-22T02:19:43;2.00;;;1.90;;
18651;SDS011;9455;54.302;10.124;2023-11-22T02:22:10;5.07;;;2.43;;
18651;SDS011;9455;54.302;10.124;2023-11-22T02:24:38;3.00;;;2.23;;
18651;SDS011;9455;54.302;10.124;2023-11-22T02:27:05;3.30;;;2.10;;
18651;SDS011;9455;54.302;10.124;2023-11-22T02:29:31;2.83;;;2.40;;
18651;SDS011;9455;54.302;10.124;2023-11-22T02:31:58;4.10;;;2.43;;
18651;SDS011;9455;54.302;10.124;2023-11-22T02:34:25;4.73;;;2.57;;
18651;SDS011;9455;54.302;10.124;2023-11-22T02:36:51;2.30;;;1.90;;
18651;SDS011;9455;54.302;10.124;2023-11-22T02:39:18;5.57;;;2.07;;
18651;SDS011;9455;54.302;10.124;2023-11-22T02:41:46;3.57;;;2.00;;
18651;SDS011;9455;54.302;10.124;2023-11-22T02:44:13;2.50;;;2.17;;
18651;SDS011;9455;54.302;10.124;2023-11-22T02:46:42;2.43;;;1.70;;
18651;SDS011;9455;54.302;10.124;2023-11-22T02:49:09;5.53;;;2.30;;
18651;SDS011;9455;54.302;10.124;2023-11-22T02:51:35;4.70;;;2.27;;
18651;SDS011;9455;54.302;10.124;2023-11-22T02:54:02;3.20;;;2.30;;
18651;SDS011;9455;54.302;10.124;2023-11-22T02:56:29;2.90;;;2.10;;
18651;SDS011;9455;54.302;10.124;2023-11-22T02:58:57;3.03;;;2.20;;
18651;SDS011;9455;54.302;10.124;2023-11-22T03:01:24;3.80;;;2.20;;
18651;SDS011;9455;54.302;10.124;2023-11-22T03:03:51;2.33;;;2.03;;
18651;SDS011;9455;54.302;10.124;2023-11-22T03:06:17;3.47;;;2.10;;
18651;SDS011;9455;54.302;10.124;2023-11-22T03:08:44;2.57;;;2.33;;
18651;SDS011;9455;54.302;10.124;2023-11-22T03:11:10;3.77;;;2.17;;
18651;SDS011;9455;54.302;10.124;2023-11-22T03:13:38;2.00;;;1.90;;
18651;SDS011;9455;54.302;10.124;2023-11-22T03:16:06;3.40;;;2.20;;
18651;SDS011;9455;54.302;10.124;2023-11-22T03:18:34;3.50;;;1.70;;
18651;SDS011;9455;54.302;10.124;2023-11-22T03:21:01;3.20;;;2.20;;
18651;SDS011;9455;54.302;10.124;2023-11-22T03:23:27;1.97;;;1.80;;
18651;SDS011;9455;54.302;10.124;2023-11-22T03:25:54;5.73;;;2.40;;
18651;SDS011;9455;54.302;10.124;2023-11-22T03:28:20;4.97;;;2.20;;
18651;SDS011;9455;54.302;10.124;2023-11-22T03:30:47;3.70;;;2.20;;
18651;SDS011;9455;54.302;10.124;2023-11-22T03:33:15;2.93;;;2.23;;
18651;SDS011;9455;54.302;10.124;2023-11-22T03:35:42;3.27;;;1.50;;
18651;SDS011;9455;54.302;10.124;2023-11-22T03:38:08;1.67;;;1.60;;
18651;SDS011;9455;54.302;10.124;2023-11-22T03:40:35;1.67;;;1.57;;
18651;SDS011;9455;54.302;10.124;2023-11-22T03:43:01;1.60;;;1.50;;
18651;SDS011;9455;54.302;10.124;2023-11-22T03:45:28;3.17;;;1.90;;
18651;SDS011;9455;54.302;10.124;2023-11-22T03:47:54;2.33;;;2.20;;
18651;SDS011;9455;54.302;10.124;2023-11-22T03:50:23;3.40;;;2.03;;
18651;SDS011;9455;54.302;10.124;2023-11-22T03:52:49;2.87;;;1.93;;
18651;SDS011;9455;54.302;10.124;2023-11-22T03:55:16;2.97;;;2.40;;
18651;SDS011;9455;54.302;10.124;2023-11-22T03:57:42;2.20;;;1.63;;
18651;SDS011;9455;54.302;10.124;2023-11-22T04:00:09;3.83;;;2.23;;
18651;SDS011;9455;54.302;10.124;2023-11-22T04:02:37;2.77;;;2.03;;
18651;SDS011;9455;54.302;10.124;2023-11-22T04:05:04;3.13;;;2.10;;
18651;SDS011;9455;54.302;10.124;2023-11-22T04:07:33;4.60;;;2.70;;
18651;SDS011;9455;54.302;10.124;2023-11-22T04:10:00;3.20;;;2.70;;
18651;SDS011;9455;54.302;10.124;2023-11-22T04:12:26;3.47;;;3.10;;
18651;SDS011;9455;54.302;10.124;2023-11-22T04:14:53;4.00;;;2.33;;
18651;SDS011;9455;54.302;10.124;2023-11-22T04:17:19;2.97;;;2.67;;
18651;SDS011;9455;54.302;10.124;2023-11-22T04:19:46;2.43;;;2.10;;
18651;SDS011;9455;54.302;10.124;2023-11-22T04:22:13;3.57;;;2.10;;
18651;SDS011;9455;54.302;10.124;2023-11-22T04:24:41;2.13;;;2.03;;
18651;SDS011;9455;54.302;10.124;2023-11-22T04:27:07;4.87;;;2.27;;
18651;SDS011;9455;54.302;10.124;2023-11-22T04:29:34;4.37;;;3.03;;
18651;SDS011;9455;54.302;10.124;2023-11-22T04:32:01;5.83;;;2.47;;
18651;SDS011;9455;54.302;10.124;2023-11-22T04:34:27;2.77;;;2.33;;
18651;SDS011;9455;54.302;10.124;2023-11-22T04:36:54;2.57;;;2.33;;
18651;SDS011;9455;54.302;10.124;2023-11-22T04:39:20;2.87;;;2.60;;
18651;SDS011;9455;54.302;10.124;2023-11-22T04:41:48;4.97;;;2.40;;
18651;SDS011;9455;54.302;10.124;2023-11-22T04:44:16;3.03;;;2.37;;
18651;SDS011;9455;54.302;10.124;2023-11-22T04:46:42;3.73;;;2.03;;
18651;SDS011;9455;54.302;10.124;2023-11-22T04:49:09;5.50;;;2.50;;
18651;SDS011;9455;54.302;10.124;2023-11-22T04:51:35;2.90;;;2.70;;
18651;SDS011;9455;54.302;10.124;2023-11-22T04:54:02;3.70;;;2.40;;
18651;SDS011;9455;54.302;10.124;2023-11-22T04:56:29;3.23;;;2.37;;
18651;SDS011;9455;54.302;10.124;2023-11-22T04:58:57;3.53;;;2.70;;
18651;SDS011;9455;54.302;10.124;2023-11-22T05:01:23;3.63;;;2.93;;
18651;SDS011;9455;54.302;10.124;2023-11-22T05:03:50;6.30;;;2.70;;
18651;SDS011;9455;54.302;10.124;2023-11-22T05:06:17;3.30;;;3.00;;
18651;SDS011;9455;54.302;10.124;2023-11-22T05:08:43;5.77;;;3.30;;
18651;SDS011;9455;54.302;10.124;2023-11-22T05:11:10;7.50;;;2.37;;
18651;SDS011;9455;54.302;10.124;2023-11-22T05:13:36;2.23;;;2.13;;
18651;SDS011;9455;54.302;10.124;2023-11-22T05:16:05;3.07;;;2.20;;
18651;SDS011;9455;54.302;10.124;2023-11-22T05:18:32;8.93;;;2.57;;
18651;SDS011;9455;54.302;10.124;2023-11-22T05:20:58;3.73;;;2.50;;
18651;SDS011;9455;54.302;10.124;2023-11-22T05:23:25;3.70;;;2.53;;
18651;SDS011;9455;54.302;10.124;2023-11-22T05:25:51;4.63;;;2.83;;
18651;SDS011;9455;54.302;10.124;2023-11-22T05:28:18;4.10;;;2.77;;
18651;SDS011;9455;54.302;10.124;2023-11-22T05:30:44;2.77;;;2.53;;
18651;SDS011;9455;54.302;10.124;2023-11-22T05:33:12;3.73;;;3.27;;
18651;SDS011;9455;54.302;10.124;2023-11-22T05:35:39;4.13;;;3.50;;
18651;SDS011;9455;54.302;10.124;2023-11-22T05:38:06;10.10;;;3.57;;
18651;SDS011;9455;54.302;10.124;2023-11-22T05:40:35;30.60;;;10.07;;
18651;SDS011;9455;54.302;10.124;2023-11-22T05:43:01;18.50;;;6.30;;
18651;SDS011;9455;54.302;10.124;2023-11-22T05:45:28;38.60;;;10.13;;
18651;SDS011;9455;54.302;10.124;2023-11-22T05:47:55;6.83;;;3.53;;
18651;SDS011;9455;54.302;10.124;2023-11-22T05:50:23;49.87;;;13.77;;
18651;SDS011;9455;54.302;10.124;2023-11-22T05:52:49;76.10;;;23.77;;
18651;SDS011;9455;54.302;10.124;2023-11-22T05:55:16;37.03;;;13.13;;
18651;SDS011;9455;54.302;10.124;2023-11-22T05:57:43;16.37;;;5.77;;
18651;SDS011;9455;54.302;10.124;2023-11-22T06:00:10;10.00;;;4.40;;
18651;SDS011;9455;54.302;10.124;2023-11-22T06:02:39;7.53;;;3.77;;
18651;SDS011;9455;54.302;10.124;2023-11-22T06:05:06;4.40;;;3.07;;
18651;SDS011;9455;54.302;10.124;2023-11-22T06:07:35;6.20;;;2.97;;
18651;SDS011;9455;54.302;10.124;2023-11-22T06:10:02;5.77;;;2.83;;
18651;SDS011;9455;54.302;10.124;2023-11-22T06:12:29;3.23;;;2.47;;
18651;SDS011;9455;54.302;10.124;2023-11-22T06:14:55;6.17;;;2.33;;
18651;SDS011;9455;54.302;10.124;2023-11-22T06:17:22;2.67;;;2.47;;
18651;SDS011;9455;54.302;10.124;2023-11-22T06:19:48;2.53;;;2.13;;
18651;SDS011;9455;54.302;10.124;2023-11-22T06:22:15;1.77;;;1.67;;
18651;SDS011;9455;54.302;10.124;2023-11-22T06:24:44;2.80;;;2.23;;
18651;SDS011;9455;54.302;10.124;2023-11-22T06:27:12;3.27;;;2.10;;
18651;SDS011;9455;54.302;10.124;2023-11-22T06:29:40;2.23;;;2.03;;
18651;SDS011;9455;54.302;10.124;2023-11-22T06:32:06;5.20;;;2.10;;
18651;SDS011;9455;54.302;10.124;2023-11-22T06:34:34;2.77;;;2.10;;
18651;SDS011;9455;54.302;10.124;2023-11-22T06:37:01;4.00;;;2.40;;
18651;SDS011;9455;54.302;10.124;2023-11-22T06:39:28;2.63;;;2.20;;
18651;SDS011;9455;54.302;10.124;2023-11-22T06:41:56;2.10;;;2.00;;
18651;SDS011;9455;54.302;10.124;2023-11-22T06:44:22;2.63;;;2.17;;
18651;SDS011;9455;54.302;10.124;2023-11-22T06:46:49;2.60;;;2.37;;
18651;SDS011;9455;54.302;10.124;2023-11-22T06:49:15;2.43;;;2.23;;
18651;SDS011;9455;54.302;10.124;2023-11-22T06:51:42;3.63;;;2.10;;
18651;SDS011;9455;54.302;10.124;2023-11-22T06:54:09;3.90;;;2.10;;
18651;SDS011;9455;54.302;10.124;2023-11-22T06:56:35;2.23;;;2.10;;
18651;SDS011;9455;54.302;10.124;2023-11-22T06:59:03;2.47;;;2.27;;
18651;SDS011;9455;54.302;10.124;2023-11-22T07:01:30;2.60;;;2.10;;
18651;SDS011;9455;54.302;10.124;2023-11-22T07:03:56;3.17;;;2.87;;
18651;SDS011;9455;54.302;10.124;2023-11-22T07:06:24;2.90;;;2.23;;
18651;SDS011;9455;54.302;10.124;2023-11-22T07:08:51;2.70;;;2.50;;
18651;SDS011;9455;54.302;10.124;2023-11-22T07:11:23;4.33;;;2.10;;
18651;SDS011;9455;54.302;10.124;2023-11-22T07:13:49;2.77;;;2.40;;
18651;SDS011;9455;54.302;10.124;2023-11-22T07:16:18;10.27;;;2.30;;
18651;SDS011;9455;54.302;10.124;2023-11-22T07:18:45;3.50;;;2.20;;
18651;SDS011;9455;54.302;10.124;2023-11-22T07:21:12;2.67;;;2.47;;
18651;SDS011;9455;54.302;10.124;2023-11-22T07:23:38;2.53;;;2.17;;
18651;SDS011;9455;54.302;10.124;2023-11-22T07:26:05;2.13;;;2.03;;
18651;SDS011;9455;54.302;10.124;2023-11-22T07:28:32;4.53;;;2.37;;
18651;SDS011;9455;54.302;10.124;2023-11-22T07:31:00;2.73;;;2.47;;
18651;SDS011;9455;54.302;10.124;2023-11-22T07:33:28;3.53;;;2.43;;
18651;SDS011;9455;54.302;10.124;2023-11-22T07:35:55;2.80;;;2.60;;
18651;SDS011;9455;54.302;10.124;2023-11-22T07:38:23;2.43;;;2.23;;
18651;SDS011;9455;54.302;10.124;2023-11-22T07:40:50;14.27;;;5.37;;
18651;SDS011;9455;54.302;10.124;2023-11-22T07:43:16;2.60;;;2.37;;
18651;SDS011;9455;54.302;10.124;2023-11-22T07:45:43;2.80;;;2.53;;
18651;SDS011;9455;54.302;10.124;2023-11-22T07:48:12;3.87;;;2.10;;
18651;SDS011;9455;54.302;10.124;2023-11-22T07:50:40;5.13;;;2.30;;
18651;SDS011;9455;54.302;10.124;2023-11-22T07:53:08;4.03;;;2.70;;
18651;SDS011;9455;54.302;10.124;2023-11-22T07:55:36;3.80;;;2.63;;
18651;SDS011;9455;54.302;10.124;2023-11-22T07:58:03;2.40;;;2.27;;
18651;SDS011;9455;54.302;10.124;2023-11-22T08:00:31;5.33;;;2.70;;
18651;SDS011;9455;54.302;10.124;2023-11-22T08:02:58;2.93;;;2.27;;
18651;SDS011;9455;54.302;10.124;2023-11-22T08:05:27;2.23;;;2.13;;
18651;SDS011;9455;54.302;10.124;2023-11-22T08:07:55;4.77;;;2.30;;
18651;SDS011;9455;54.302;10.124;2023-11-22T08:10:22;2.47;;;2.37;;
18651;SDS011;9455;54.302;10.124;2023-11-22T08:12:50;7.03;;;2.87;;
18651;SDS011;9455;54.302;10.124;2023-11-22T08:15:17;4.30;;;2.60;;
18651;SDS011;9455;54.302;10.124;2023-11-22T08:17:44;3.17;;;2.30;;
18651;SDS011;9455;54.302;10.124;2023-11-22T08:20:11;3.80;;;2.10;;
18651;SDS011;9455;54.302;10.124;2023-11-22T08:22:42;4.80;;;2.53;;
18651;SDS011;9455;54.302;10.124;2023-11-22T08:25:12;4.30;;;2.50;;
18651;SDS011;9455;54.302;10.124;2023-11-22T08:27:39;2.90;;;2.60;;
18651;SDS011;9455;54.302;10.124;2023-11-22T08:30:06;5.40;;;3.47;;
18651;SDS011;9455;54.302;10.124;2023-11-22T08:32:38;3.30;;;2.90;;
18651;SDS011;9455;54.302;10.124;2023-11-22T08:35:06;7.93;;;4.27;;
18651;SDS011;9455;54.302;10.124;2023-11-22T08:37:34;3.30;;;3.00;;
18651;SDS011;9455;54.302;10.124;2023-11-22T08:40:03;2.90;;;2.57;;
18651;SDS011;9455;54.302;10.124;2023-11-22T08:42:32;4.40;;;2.90;;
18651;SDS011;9455;54.302;10.124;2023-11-22T08:45:00;3.20;;;2.90;;
18651;SDS011;9455;54.302;10.124;2023-11-22T08:47:27;3.30;;;3.03;;
18651;SDS011;9455;54.302;10.124;2023-11-22T08:49:54;3.00;;;2.70;;
18651;SDS011;9455;54.302;10.124;2023-11-22T08:52:21;2.90;;;2.60;;
18651;SDS011;9455;54.302;10.124;2023-11-22T08:54:48;3.27;;;2.80;;
18651;SDS011;9455;54.302;10.124;2023-11-22T08:57:15;3.33;;;2.90;;
18651;SDS011;9455;54.302;10.124;2023-11-22T08:59:43;3.90;;;2.40;;
18651;SDS011;9455;54.302;10.124;2023-11-22T09:02:09;5.13;;;2.37;;
18651;SDS011;9455;54.302;10.124;2023-11-22T09:04:37;4.03;;;2.30;;
18651;SDS011;9455;54.302;10.124;2023-11-22T09:07:06;2.60;;;2.40;;
18651;SDS011;9455;54.302;10.124;2023-11-22T09:09:33;2.17;;;1.93;;
18651;SDS011;9455;54.302;10.124;2023-11-22T09:12:01;2.90;;;2.70;;
18651;SDS011;9455;54.302;10.124;2023-11-22T09:14:27;2.87;;;2.67;;
18651;SDS011;9455;54.302;10.124;2023-11-22T09:16:55;5.03;;;2.30;;
18651;SDS011;9455;54.302;10.124;2023-11-22T09:19:22;8.30;;;2.73;;
18651;SDS011;9455;54.302;10.124;2023-11-22T09:21:50;4.57;;;2.57;;
18651;SDS011;9455;54.302;10.124;2023-11-22T09:24:17;2.60;;;2.33;;
18651;SDS011;9455;54.302;10.124;2023-11-22T09:26:44;3.03;;;2.77;;
18651;SDS011;9455;54.302;10.124;2023-11-22T09:29:11;5.43;;;2.70;;
18651;SDS011;9455;54.302;10.124;2023-11-22T09:31:38;2.43;;;2.20;;
18651;SDS011;9455;54.302;10.124;2023-11-22T09:34:06;3.13;;;2.83;;
18651;SDS011;9455;54.302;10.124;2023-11-22T09:36:33;3.20;;;2.67;;
18651;SDS011;9455;54.302;10.124;2023-11-22T09:39:00;2.57;;;2.33;;
18651;SDS011;9455;54.302;10.124;2023-11-22T09:41:28;3.70;;;2.70;;
18651;SDS011;9455;54.302;10.124;2023-11-22T09:43:54;3.83;;;2.80;;
18651;SDS011;9455;54.302;10.124;2023-11-22T09:46:23;2.77;;;2.50;;
18651;SDS011;9455;54.302;10.124;2023-11-22T09:48:50;2.80;;;2.60;;
18651;SDS011;9455;54.302;10.124;2023-11-22T09:51:23;6.17;;;2.57;;
18651;SDS011;9455;54.302;10.124;2023-11-22T09:53:55;5.07;;;2.93;;
18651;SDS011;9455;54.302;10.124;2023-11-22T09:56:24;4.77;;;2.83;;
18651;SDS011;9455;54.302;10.124;2023-11-22T09:58:51;4.40;;;2.73;;
18651;SDS011;9455;54.302;10.124;2023-11-22T10:01:21;3.63;;;3.13;;
18651;SDS011;9455;54.302;10.124;2023-11-22T10:03:48;3.23;;;2.90;;
18651;SDS011;9455;54.302;10.124;2023-11-22T10:06:15;3.87;;;2.70;;
18651;SDS011;9455;54.302;10.124;2023-11-22T10:08:45;2.97;;;2.60;;
18651;SDS011;9455;54.302;10.124;2023-11-22T10:11:14;3.73;;;2.53;;
18651;SDS011;9455;54.302;10.124;2023-11-22T10:13:42;4.23;;;2.67;;
18651;SDS011;9455;54.302;10.124;2023-11-22T10:16:11;6.70;;;2.93;;
18651;SDS011;9455;54.302;10.124;2023-11-22T10:18:41;3.10;;;2.80;;
18651;SDS011;9455;54.302;10.124;2023-11-22T10:21:18;2.87;;;2.57;;
18651;SDS011;9455;54.302;10.124;2023-11-22T10:23:47;3.13;;;2.77;;
18651;SDS011;9455;54.302;10.124;2023-11-22T10:26:16;3.07;;;2.80;;
18651;SDS011;9455;54.302;10.124;2023-11-22T10:28:43;2.73;;;2.47;;
18651;SDS011;9455;54.302;10.124;2023-11-22T10:31:10;2.93;;;2.67;;
18651;SDS011;9455;54.302;10.124;2023-11-22T10:33:41;4.57;;;2.70;;
18651;SDS011;9455;54.302;10.124;2023-11-22T10:36:09;4.50;;;2.97;;
18651;SDS011;9455;54.302;10.124;2023-11-22T10:38:37;2.60;;;2.40;;
18651;SDS011;9455;54.302;10.124;2023-11-22T10:41:05;3.50;;;2.37;;
18651;SDS011;9455;54.302;10.124;2023-11-22T10:43:33;3.07;;;2.77;;
18651;SDS011;9455;54.302;10.124;2023-11-22T10:46:01;6.03;;;2.60;;
18651;SDS011;9455;54.302;10.124;2023-11-22T10:48:29;2.67;;;2.43;;
18651;SDS011;9455;54.302;10.124;2023-11-22T10:50:58;2.53;;;2.43;;
18651;SDS011;9455;54.302;10.124;2023-11-22T10:53:30;3.17;;;2.57;;
18651;SDS011;9455;54.302;10.124;2023-11-22T10:56:04;2.50;;;2.33;;
18651;SDS011;9455;54.302;10.124;2023-11-22T10:58:37;2.50;;;2.30;;
18651;SDS011;9455;54.302;10.124;2023-11-22T11:01:13;8.43;;;2.70;;
18651;SDS011;9455;54.302;10.124;2023-11-22T11:03:41;3.43;;;3.10;;
18651;SDS011;9455;54.302;10.124;2023-11-22T11:06:14;2.43;;;2.23;;
18651;SDS011;9455;54.302;10.124;2023-11-22T11:08:46;6.27;;;2.50;;
18651;SDS011;9455;54.302;10.124;2023-11-22T11:11:15;3.87;;;2.40;;
18651;SDS011;9455;54.302;10.124;2023-11-22T11:13:43;2.27;;;2.13;;
18651;SDS011;9455;54.302;10.124;2023-11-22T11:16:12;2.67;;;2.40;;
18651;SDS011;9455;54.302;10.124;2023-11-22T11:18:38;3.30;;;3.00;;
18651;SDS011;9455;54.302;10.124;2023-11-22T11:21:07;3.70;;;2.90;;
18651;SDS011;9455;54.302;10.124;2023-11-22T11:23:38;4.10;;;3.80;;
18651;SDS011;9455;54.302;10.124;2023-11-22T11:26:08;4.13;;;2.53;;
18651;SDS011;9455;54.302;10.124;2023-11-22T11:28:43;2.63;;;2.43;;
18651;SDS011;9455;54.302;10.124;2023-11-22T11:31:11;11.20;;;7.93;;
18651;SDS011;9455;54.302;10.124;2023-11-22T11:33:52;5.87;;;4.17;;
18651;SDS011;9455;54.302;10.124;2023-11-22T11:36:21;6.10;;;4.37;;
18651;SDS011;9455;54.302;10.124;2023-11-22T11:38:50;8.73;;;4.93;;
18651;SDS011;9455;54.302;10.124;2023-11-22T11:41:18;6.87;;;3.80;;
18651;SDS011;9455;54.302;10.124;2023-11-22T11:43:47;6.17;;;2.77;;
18651;SDS011;9455;54.302;10.124;2023-11-22T11:46:15;3.97;;;3.10;;
18651;SDS011;9455;54.302;10.124;2023-11-22T11:48:42;12.70;;;4.70;;
18651;SDS011;9455;54.302;10.124;2023-11-22T11:51:13;56.83;;;15.77;;
18651;SDS011;9455;54.302;10.124;2023-11-22T11:53:40;11.57;;;7.40;;
18651;SDS011;9455;54.302;10.124;2023-11-22T11:56:07;9.40;;;6.87;;
18651;SDS011;9455;54.302;10.124;2023-11-22T11:58:34;9.33;;;5.50;;
18651;SDS011;9455;54.302;10.124;2023-11-22T12:01:04;3.73;;;2.80;;
18651;SDS011;9455;54.302;10.124;2023-11-22T12:03:30;1.93;;;1.83;;
18651;SDS011;9455;54.302;10.124;2023-11-22T12:05:57;2.23;;;2.13;;
18651;SDS011;9455;54.302;10.124;2023-11-22T12:08:24;2.47;;;1.87;;
18651;SDS011;9455;54.302;10.124;2023-11-22T12:10:55;4.20;;;2.10;;
18651;SDS011;9455;54.302;10.124;2023-11-22T12:13:24;2.83;;;1.87;;
18651;SDS011;9455;54.302;10.124;2023-11-22T12:15:51;2.20;;;2.10;;
18651;SDS011;9455;54.302;10.124;2023-11-22T12:18:21;1.60;;;1.50;;
18651;SDS011;9455;54.302;10.124;2023-11-22T12:20:53;3.93;;;2.90;;
18651;SDS011;9455;54.302;10.124;2023-11-22T12:23:21;3.07;;;2.37;;
18651;SDS011;9455;54.302;10.124;2023-11-22T12:25:48;2.37;;;2.13;;
18651;SDS011;9455;54.302;10.124;2023-11-22T12:28:16;4.87;;;2.37;;
18651;SDS011;9455;54.302;10.124;2023-11-22T12:30:42;2.87;;;2.47;;
18651;SDS011;9455;54.302;10.124;2023-11-22T12:33:10;2.00;;;1.80;;
18651;SDS011;9455;54.302;10.124;2023-11-22T12:35:39;3.23;;;1.90;;
18651;SDS011;9455;54.302;10.124;2023-11-22T12:38:06;5.03;;;2.17;;
18651;SDS011;9455;54.302;10.124;2023-11-22T12:40:32;2.07;;;1.53;;
18651;SDS011;9455;54.302;10.124;2023-11-22T12:43:00;2.60;;;1.80;;
18651;SDS011;9455;54.302;10.124;2023-11-22T12:45:27;2.07;;;1.87;;
18651;SDS011;9455;54.302;10.124;2023-11-22T12:47:55;2.23;;;2.03;;
18651;SDS011;9455;54.302;10.124;2023-11-22T12:50:30;2.47;;;1.80;;
18651;SDS011;9455;54.302;10.124;2023-11-22T12:52:59;1.70;;;1.60;;
18651;SDS011;9455;54.302;10.124;2023-11-22T12:55:26;1.63;;;1.53;;
18651;SDS011;9455;54.302;10.124;2023-11-22T12:57:56;2.97;;;2.17;;
18651;SDS011;9455;54.302;10.124;2023-11-22T13:00:24;1.70;;;1.60;;
18651;SDS011;9455;54.302;10.124;2023-11-22T13:02:51;2.60;;;1.47;;
18651;SDS011;9455;54.302;10.124;2023-11-22T13:05:17;3.67;;;1.90;;
18651;SDS011;9455;54.302;10.124;2023-11-22T13:07:44;3.20;;;2.10;;
18651;SDS011;9455;54.302;10.124;2023-11-22T13:10:12;3.33;;;2.00;;
18651;SDS011;9455;54.302;10.124;2023-11-22T13:12:41;1.73;;;1.63;;
18651;SDS011;9455;54.302;10.124;2023-11-22T13:15:09;1.50;;;1.40;;
18651;SDS011;9455;54.302;10.124;2023-11-22T13:17:36;2.10;;;2.00;;
18651;SDS011;9455;54.302;10.124;2023-11-22T13:20:05;1.70;;;1.60;;
18651;SDS011;9455;54.302;10.124;2023-11-22T13:22:38;2.73;;;1.97;;
18651;SDS011;9455;54.302;10.124;2023-11-22T13:25:05;1.77;;;1.67;;
18651;SDS011;9455;54.302;10.124;2023-11-22T13:27:33;3.77;;;1.47;;
18651;SDS011;9455;54.302;10.124;2023-11-22T13:30:00;4.13;;;1.57;;
18651;SDS011;9455;54.302;10.124;2023-11-22T13:32:26;2.17;;;1.80;;
18651;SDS011;9455;54.302;10.124;2023-11-22T13:34:53;2.20;;;2.00;;
18651;SDS011;9455;54.302;10.124;2023-11-22T13:37:22;6.77;;;1.93;;
18651;SDS011;9455;54.302;10.124;2023-11-22T13:39:49;2.10;;;1.97;;
18651;SDS011;9455;54.302;10.124;2023-11-22T13:42:15;1.67;;;1.57;;
18651;SDS011;9455;54.302;10.124;2023-11-22T13:44:44;8.77;;;4.23;;
18651;SDS011;9455;54.302;10.124;2023-11-22T13:47:10;4.30;;;2.47;;
18651;SDS011;9455;54.302;10.124;2023-11-22T13:49:39;2.23;;;2.13;;
18651;SDS011;9455;54.302;10.124;2023-11-22T13:52:07;2.50;;;2.30;;
18651;SDS011;9455;54.302;10.124;2023-11-22T13:54:34;1.87;;;1.77;;
18651;SDS011;9455;54.302;10.124;2023-11-22T13:57:04;4.70;;;1.40;;
18651;SDS011;9455;54.302;10.124;2023-11-22T13:59:31;1.60;;;1.50;;
18651;SDS011;9455;54.302;10.124;2023-11-22T14:01:58;1.63;;;1.53;;
18651;SDS011;9455;54.302;10.124;2023-11-22T14:04:26;1.40;;;1.40;;
18651;SDS011;9455;54.302;10.124;2023-11-22T14:06:52;1.40;;;1.30;;
18651;SDS011;9455;54.302;10.124;2023-11-22T14:09:19;1.37;;;1.37;;
18651;SDS011;9455;54.302;10.124;2023-11-22T14:11:45;1.33;;;1.33;;
18651;SDS011;9455;54.302;10.124;2023-11-22T14:14:12;1.37;;;1.33;;
18651;SDS011;9455;54.302;10.124;2023-11-22T14:16:39;2.50;;;1.60;;
18651;SDS011;9455;54.302;10.124;2023-11-22T14:19:11;1.10;;;1.10;;
18651;SDS011;9455;54.302;10.124;2023-11-22T14:21:38;1.60;;;1.37;;
18651;SDS011;9455;54.302;10.124;2023-11-22T14:24:05;1.70;;;1.60;;
18651;SDS011;9455;54.302;10.124;2023-11-22T14:26:33;2.90;;;1.57;;
18651;SDS011;9455;54.302;10.124;2023-11-22T14:29:00;1.37;;;1.27;;
18651;SDS011;9455;54.302;10.124;2023-11-22T14:31:27;1.20;;;1.20;;
18651;SDS011;9455;54.302;10.124;2023-11-22T14:33:54;1.70;;;1.60;;
18651;SDS011;9455;54.302;10.124;2023-11-22T14:36:23;1.10;;;1.10;;
18651;SDS011;9455;54.302;10.124;2023-11-22T14:38:51;3.03;;;1.70;;
18651;SDS011;9455;54.302;10.124;2023-11-22T14:41:21;1.27;;;1.27;;
18651;SDS011;9455;54.302;10.124;2023-11-22T14:43:48;1.30;;;1.30;;
18651;SDS011;9455;54.302;10.124;2023-11-22T14:46:15;1.90;;;1.40;;
18651;SDS011;9455;54.302;10.124;2023-11-22T14:48:42;2.60;;;1.10;;